sensor_id;sensor_type;location;lat;lon;timestamp;temperature;humidity
23120;DHT22;11729;50.836;4.330;2022-12-18T00:02:24;-0.50;99.90
23120;DHT22;11729;50.836;4.330;2022-12-18T00:04:50;-0.40;99.90
23120;DHT22;11729;50.836;4.330;2022-12-18T00:07:18;-0.40;99.90
23120;DHT22;11729;50.836;4.330;2022-12-18T00:09:47;-0.30;99.90
23120;DHT22;11729;50.836;4.330;2022-12-18T00:12:14;-0.30;99.90
23120;DHT22;11729;50.836;4.330;2022-12-18T00:14:40;-0.30;99.90
23120;DHT22;11729;50.836;4.330;2022-12-18T00:17:06;-0.30;99.90
23120;DHT22;11729;50.836;4.330;2022-12-18T00:19:34;-0.20;99.90
23120;DHT22;11729;50.836;4.330;2022-12-18T00:22:00;-0.10;99.90
23120;DHT22;11729;50.836;4.330;2022-12-18T00:24:28;-0.10;99.90
23120;DHT22;11729;50.836;4.330;2022-12-18T00:26:54;-0.20;99.90
23120;DHT22;11729;50.836;4.330;2022-12-18T00:29:20;-0.30;99.90
23120;DHT22;11729;50.836;4.330;2022-12-18T00:31:46;-0.20;99.90
23120;DHT22;11729;50.836;4.330;2022-12-18T00:34:13;-0.10;99.90
23120;DHT22;11729;50.836;4.330;2022-12-18T00:36:39;-0.20;99.90
23120;DHT22;11729;50.836;4.330;2022-12-18T00:39:05;-0.10;99.90
23120;DHT22;11729;50.836;4.330;2022-12-18T00:41:38;-0.10;99.90
23120;DHT22;11729;50.836;4.330;2022-12-18T00:44:22;-0.10;99.90
23120;DHT22;11729;50.836;4.330;2022-12-18T00:46:49;-0.30;99.90
23120;DHT22;11729;50.836;4.330;2022-12-18T00:49:18;-0.30;99.90
23120;DHT22;11729;50.836;4.330;2022-12-18T00:51:44;-0.20;99.90
23120;DHT22;11729;50.836;4.330;2022-12-18T00:54:09;-0.30;99.90
23120;DHT22;11729;50.836;4.330;2022-12-18T00:56:37;-0.30;99.90
23120;DHT22;11729;50.836;4.330;2022-12-18T00:59:05;-0.40;99.90
23120;DHT22;11729;50.836;4.330;2022-12-18T01:01:32;-0.30;99.90
23120;DHT22;11729;50.836;4.330;2022-12-18T01:04:00;-0.50;99.90
23120;DHT22;11729;50.836;4.330;2022-12-18T01:06:29;-0.50;99.90
23120;DHT22;11729;50.836;4.330;2022-12-18T01:08:55;-0.50;99.90
23120;DHT22;11729;50.836;4.330;2022-12-18T01:11:21;-0.60;99.90
23120;DHT22;11729;50.836;4.330;2022-12-18T01:13:48;-0.70;99.90
23120;DHT22;11729;50.836;4.330;2022-12-18T01:16:15;-0.70;99.90
23120;DHT22;11729;50.836;4.330;2022-12-18T01:18:41;-0.80;99.90
23120;DHT22;11729;50.836;4.330;2022-12-18T01:21:09;-0.80;99.90
23120;DHT22;11729;50.836;4.330;2022-12-18T01:23:34;-0.80;99.90
23120;DHT22;11729;50.836;4.330;2022-12-18T01:26:11;-0.90;99.90
23120;DHT22;11729;50.836;4.330;2022-12-18T01:28:41;-0.90;99.90
23120;DHT22;11729;50.836;4.330;2022-12-18T01:31:27;-0.90;99.90
23120;DHT22;11729;50.836;4.330;2022-12-18T01:33:54;-0.90;99.90
23120;DHT22;11729;50.836;4.330;2022-12-18T01:38:46;-0.80;99.90
23120;DHT22;11729;50.836;4.330;2022-12-18T01:41:12;-0.80;99.90
23120;DHT22;11729;50.836;4.330;2022-12-18T01:43:42;-0.90;99.90
23120;DHT22;11729;50.836;4.330;2022-12-18T01:46:08;-0.90;99.90
23120;DHT22;11729;50.836;4.330;2022-12-18T01:48:34;-1.00;99.90
23120;DHT22;11729;50.836;4.330;2022-12-18T01:51:00;-1.00;99.90
23120;DHT22;11729;50.836;4.330;2022-12-18T01:53:26;-1.00;99.90
23120;DHT22;11729;50.836;4.330;2022-12-18T01:55:54;-1.00;99.90
23120;DHT22;11729;50.836;4.330;2022-12-18T01:58:30;-0.80;99.90
23120;DHT22;11729;50.836;4.330;2022-12-18T02:00:57;-0.80;99.90
23120;DHT22;11729;50.836;4.330;2022-12-18T02:03:23;-0.90;99.90
23120;DHT22;11729;50.836;4.330;2022-12-18T02:11:06;-0.70;99.90
23120;DHT22;11729;50.836;4.330;2022-12-18T02:13:46;-0.50;99.90
23120;DHT22;11729;50.836;4.330;2022-12-18T02:16:38;-0.50;99.90
23120;DHT22;11729;50.836;4.330;2022-12-18T02:27:39;-0.90;99.90
23120;DHT22;11729;50.836;4.330;2022-12-18T02:30:07;-1.00;99.90
23120;DHT22;11729;50.836;4.330;2022-12-18T02:32:42;-1.00;99.90
23120;DHT22;11729;50.836;4.330;2022-12-18T02:35:13;-0.80;99.90
23120;DHT22;11729;50.836;4.330;2022-12-18T02:37:41;-0.70;99.90
23120;DHT22;11729;50.836;4.330;2022-12-18T02:40:09;-0.80;99.90
23120;DHT22;11729;50.836;4.330;2022-12-18T02:42:35;-0.70;99.90
23120;DHT22;11729;50.836;4.330;2022-12-18T02:45:01;-0.70;99.90
23120;DHT22;11729;50.836;4.330;2022-12-18T02:47:31;-0.60;99.90
23120;DHT22;11729;50.836;4.330;2022-12-18T02:55:16;-0.80;99.90
23120;DHT22;11729;50.836;4.330;2022-12-18T03:00:21;-0.90;99.90
23120;DHT22;11729;50.836;4.330;2022-12-18T03:02:54;-0.80;99.90
23120;DHT22;11729;50.836;4.330;2022-12-18T03:05:50;-0.90;99.90
23120;DHT22;11729;50.836;4.330;2022-12-18T03:08:24;-0.70;99.90
23120;DHT22;11729;50.836;4.330;2022-12-18T03:10:59;-0.60;99.90
23120;DHT22;11729;50.836;4.330;2022-12-18T03:16:00;-0.60;99.90
23120;DHT22;11729;50.836;4.330;2022-12-18T03:18:43;-0.60;99.90
23120;DHT22;11729;50.836;4.330;2022-12-18T03:21:11;-0.60;99.90
23120;DHT22;11729;50.836;4.330;2022-12-18T03:23:44;-0.80;99.90
23120;DHT22;11729;50.836;4.330;2022-12-18T03:26:12;-0.80;99.90
23120;DHT22;11729;50.836;4.330;2022-12-18T03:28:44;-0.80;99.90
23120;DHT22;11729;50.836;4.330;2022-12-18T03:31:14;-0.80;99.90
23120;DHT22;11729;50.836;4.330;2022-12-18T03:33:57;-0.90;99.90
23120;DHT22;11729;50.836;4.330;2022-12-18T03:36:25;-0.80;99.90
23120;DHT22;11729;50.836;4.330;2022-12-18T03:38:58;-0.70;99.90
23120;DHT22;11729;50.836;4.330;2022-12-18T03:41:33;-0.80;99.90
23120;DHT22;11729;50.836;4.330;2022-12-18T03:47:18;-0.90;99.90
23120;DHT22;11729;50.836;4.330;2022-12-18T03:52:38;-0.90;99.90
23120;DHT22;11729;50.836;4.330;2022-12-18T03:55:07;-1.00;99.90
23120;DHT22;11729;50.836;4.330;2022-12-18T03:57:33;-1.00;99.90
23120;DHT22;11729;50.836;4.330;2022-12-18T04:00:09;-1.10;99.90
23120;DHT22;11729;50.836;4.330;2022-12-18T04:02:39;-1.10;99.90
23120;DHT22;11729;50.836;4.330;2022-12-18T04:05:09;-1.10;99.90
23120;DHT22;11729;50.836;4.330;2022-12-18T04:07:36;-1.20;99.90
23120;DHT22;11729;50.836;4.330;2022-12-18T04:10:06;-1.10;99.90
23120;DHT22;11729;50.836;4.330;2022-12-18T04:12:38;-1.10;99.90
23120;DHT22;11729;50.836;4.330;2022-12-18T04:15:05;-1.10;99.90
23120;DHT22;11729;50.836;4.330;2022-12-18T04:17:31;-1.10;99.90
23120;DHT22;11729;50.836;4.330;2022-12-18T04:19:58;-1.20;99.90
23120;DHT22;11729;50.836;4.330;2022-12-18T04:22:26;-1.30;99.90
23120;DHT22;11729;50.836;4.330;2022-12-18T04:24:52;-1.20;99.90
23120;DHT22;11729;50.836;4.330;2022-12-18T04:27:18;-1.20;99.90
23120;DHT22;11729;50.836;4.330;2022-12-18T04:29:45;-1.30;99.90
23120;DHT22;11729;50.836;4.330;2022-12-18T04:32:11;-1.30;99.90
23120;DHT22;11729;50.836;4.330;2022-12-18T04:34:37;-1.40;99.90
23120;DHT22;11729;50.836;4.330;2022-12-18T04:37:05;-1.40;99.90
23120;DHT22;11729;50.836;4.330;2022-12-18T04:39:33;-1.50;99.90
23120;DHT22;11729;50.836;4.330;2022-12-18T04:41:58;-1.50;99.90
23120;DHT22;11729;50.836;4.330;2022-12-18T04:44:24;-1.50;99.90
23120;DHT22;11729;50.836;4.330;2022-12-18T04:46:49;-1.50;99.90
23120;DHT22;11729;50.836;4.330;2022-12-18T04:49:15;-1.40;99.90
23120;DHT22;11729;50.836;4.330;2022-12-18T04:51:41;-1.50;99.90
23120;DHT22;11729;50.836;4.330;2022-12-18T04:54:06;-1.50;99.90
23120;DHT22;11729;50.836;4.330;2022-12-18T04:56:32;-1.50;99.90
23120;DHT22;11729;50.836;4.330;2022-12-18T04:58:57;-1.50;99.90
23120;DHT22;11729;50.836;4.330;2022-12-18T05:01:23;-1.50;99.90
23120;DHT22;11729;50.836;4.330;2022-12-18T05:03:50;-1.50;99.90
23120;DHT22;11729;50.836;4.330;2022-12-18T05:06:15;-1.40;99.90
23120;DHT22;11729;50.836;4.330;2022-12-18T05:08:41;-1.50;99.90
23120;DHT22;11729;50.836;4.330;2022-12-18T05:11:12;-1.60;99.90
23120;DHT22;11729;50.836;4.330;2022-12-18T05:13:41;-1.70;99.90
23120;DHT22;11729;50.836;4.330;2022-12-18T05:16:07;-1.70;99.90
23120;DHT22;11729;50.836;4.330;2022-12-18T05:18:33;-1.80;99.90
23120;DHT22;11729;50.836;4.330;2022-12-18T05:20:58;-1.70;99.90
23120;DHT22;11729;50.836;4.330;2022-12-18T05:23:24;-1.80;99.90
23120;DHT22;11729;50.836;4.330;2022-12-18T05:25:55;-1.80;99.90
23120;DHT22;11729;50.836;4.330;2022-12-18T05:28:22;-1.70;99.90
23120;DHT22;11729;50.836;4.330;2022-12-18T05:30:51;-1.70;99.90
23120;DHT22;11729;50.836;4.330;2022-12-18T05:33:21;-1.80;99.90
23120;DHT22;11729;50.836;4.330;2022-12-18T05:35:55;-1.80;99.90
23120;DHT22;11729;50.836;4.330;2022-12-18T05:38:23;-1.80;99.90
23120;DHT22;11729;50.836;4.330;2022-12-18T05:40:49;-1.80;99.90
23120;DHT22;11729;50.836;4.330;2022-12-18T05:43:15;-1.70;99.90
23120;DHT22;11729;50.836;4.330;2022-12-18T05:45:41;-1.60;99.90
23120;DHT22;11729;50.836;4.330;2022-12-18T05:48:13;-1.70;99.90
23120;DHT22;11729;50.836;4.330;2022-12-18T05:50:40;-1.80;99.90
23120;DHT22;11729;50.836;4.330;2022-12-18T05:53:07;-1.80;99.90
23120;DHT22;11729;50.836;4.330;2022-12-18T05:55:37;-1.80;99.90
23120;DHT22;11729;50.836;4.330;2022-12-18T05:58:04;-1.80;99.90
23120;DHT22;11729;50.836;4.330;2022-12-18T06:00:31;-1.90;99.90
23120;DHT22;11729;50.836;4.330;2022-12-18T06:02:58;-1.90;99.90
23120;DHT22;11729;50.836;4.330;2022-12-18T06:05:24;-2.00;99.90
23120;DHT22;11729;50.836;4.330;2022-12-18T06:07:50;-2.00;99.90
23120;DHT22;11729;50.836;4.330;2022-12-18T06:10:16;-1.90;99.90
23120;DHT22;11729;50.836;4.330;2022-12-18T06:12:42;-1.90;99.90
23120;DHT22;11729;50.836;4.330;2022-12-18T06:15:08;-1.90;99.90
23120;DHT22;11729;50.836;4.330;2022-12-18T06:17:34;-1.90;99.90
23120;DHT22;11729;50.836;4.330;2022-12-18T06:20:00;-1.80;99.90
23120;DHT22;11729;50.836;4.330;2022-12-18T06:22:26;-1.70;99.90
23120;DHT22;11729;50.836;4.330;2022-12-18T06:24:52;-1.40;99.90
23120;DHT22;11729;50.836;4.330;2022-12-18T06:27:18;-1.40;99.90
23120;DHT22;11729;50.836;4.330;2022-12-18T06:29:43;-1.40;99.90
23120;DHT22;11729;50.836;4.330;2022-12-18T06:32:09;-1.40;99.90
23120;DHT22;11729;50.836;4.330;2022-12-18T06:34:37;-1.50;99.90
23120;DHT22;11729;50.836;4.330;2022-12-18T06:37:04;-1.50;99.90
23120;DHT22;11729;50.836;4.330;2022-12-18T06:39:32;-1.60;99.90
23120;DHT22;11729;50.836;4.330;2022-12-18T06:41:58;-1.50;99.90
23120;DHT22;11729;50.836;4.330;2022-12-18T06:44:25;-1.50;99.90
23120;DHT22;11729;50.836;4.330;2022-12-18T06:46:52;-1.60;99.90
23120;DHT22;11729;50.836;4.330;2022-12-18T06:49:20;-1.50;99.90
23120;DHT22;11729;50.836;4.330;2022-12-18T06:51:52;-1.60;99.90
23120;DHT22;11729;50.836;4.330;2022-12-18T06:54:26;-1.70;99.90
23120;DHT22;11729;50.836;4.330;2022-12-18T06:56:51;-1.80;99.90
23120;DHT22;11729;50.836;4.330;2022-12-18T06:59:18;-1.80;99.90
23120;DHT22;11729;50.836;4.330;2022-12-18T07:01:43;-1.90;99.90
23120;DHT22;11729;50.836;4.330;2022-12-18T07:04:14;-1.90;99.90
23120;DHT22;11729;50.836;4.330;2022-12-18T07:06:51;-1.90;99.90
23120;DHT22;11729;50.836;4.330;2022-12-18T07:09:20;-1.90;99.90
23120;DHT22;11729;50.836;4.330;2022-12-18T07:11:46;-1.80;99.90
23120;DHT22;11729;50.836;4.330;2022-12-18T07:14:13;-1.60;99.90
23120;DHT22;11729;50.836;4.330;2022-12-18T07:16:40;-1.70;99.90
23120;DHT22;11729;50.836;4.330;2022-12-18T07:19:07;-1.60;99.90
23120;DHT22;11729;50.836;4.330;2022-12-18T07:21:35;-1.60;99.90
23120;DHT22;11729;50.836;4.330;2022-12-18T07:24:02;-1.60;99.90
23120;DHT22;11729;50.836;4.330;2022-12-18T07:26:28;-1.50;99.90
23120;DHT22;11729;50.836;4.330;2022-12-18T07:28:56;-1.50;99.90
23120;DHT22;11729;50.836;4.330;2022-12-18T07:31:23;-1.30;99.90
23120;DHT22;11729;50.836;4.330;2022-12-18T07:33:50;-1.30;99.90
23120;DHT22;11729;50.836;4.330;2022-12-18T07:36:15;-1.40;99.90
23120;DHT22;11729;50.836;4.330;2022-12-18T07:38:41;-1.50;99.90
23120;DHT22;11729;50.836;4.330;2022-12-18T07:41:09;-1.50;99.90
23120;DHT22;11729;50.836;4.330;2022-12-18T07:43:35;-1.50;99.90
23120;DHT22;11729;50.836;4.330;2022-12-18T07:46:02;-1.50;99.90
23120;DHT22;11729;50.836;4.330;2022-12-18T07:48:28;-1.50;99.90
23120;DHT22;11729;50.836;4.330;2022-12-18T07:50:58;-1.40;99.90
23120;DHT22;11729;50.836;4.330;2022-12-18T07:53:24;-1.50;99.90
23120;DHT22;11729;50.836;4.330;2022-12-18T07:55:54;-1.60;99.90
23120;DHT22;11729;50.836;4.330;2022-12-18T07:58:19;-1.60;99.90
23120;DHT22;11729;50.836;4.330;2022-12-18T08:00:45;-1.60;99.90
23120;DHT22;11729;50.836;4.330;2022-12-18T08:03:12;-1.60;99.90
23120;DHT22;11729;50.836;4.330;2022-12-18T08:05:37;-1.70;99.90
23120;DHT22;11729;50.836;4.330;2022-12-18T08:08:03;-1.70;99.90
23120;DHT22;11729;50.836;4.330;2022-12-18T08:10:28;-1.60;99.90
23120;DHT22;11729;50.836;4.330;2022-12-18T08:12:54;-1.60;99.90
23120;DHT22;11729;50.836;4.330;2022-12-18T08:15:20;-1.30;99.90
23120;DHT22;11729;50.836;4.330;2022-12-18T08:17:45;-1.10;99.90
23120;DHT22;11729;50.836;4.330;2022-12-18T08:20:11;-1.00;99.90
23120;DHT22;11729;50.836;4.330;2022-12-18T08:22:41;-0.90;99.90
23120;DHT22;11729;50.836;4.330;2022-12-18T08:25:07;-0.80;99.90
23120;DHT22;11729;50.836;4.330;2022-12-18T08:27:32;-0.60;99.90
23120;DHT22;11729;50.836;4.330;2022-12-18T08:29:58;-0.50;99.90
23120;DHT22;11729;50.836;4.330;2022-12-18T08:32:25;-0.40;99.90
23120;DHT22;11729;50.836;4.330;2022-12-18T08:34:50;-0.40;99.90
23120;DHT22;11729;50.836;4.330;2022-12-18T08:37:16;-0.30;99.90
23120;DHT22;11729;50.836;4.330;2022-12-18T08:39:42;-0.30;99.90
23120;DHT22;11729;50.836;4.330;2022-12-18T08:42:07;-0.10;99.90
23120;DHT22;11729;50.836;4.330;2022-12-18T08:44:51;0.00;99.90
23120;DHT22;11729;50.836;4.330;2022-12-18T08:47:17;0.00;99.90
23120;DHT22;11729;50.836;4.330;2022-12-18T08:49:43;0.10;99.90
23120;DHT22;11729;50.836;4.330;2022-12-18T08:52:08;0.00;99.90
23120;DHT22;11729;50.836;4.330;2022-12-18T08:54:34;0.20;99.90
23120;DHT22;11729;50.836;4.330;2022-12-18T08:56:59;0.30;99.90
23120;DHT22;11729;50.836;4.330;2022-12-18T08:59:25;0.40;99.90
23120;DHT22;11729;50.836;4.330;2022-12-18T09:01:53;0.40;99.90
23120;DHT22;11729;50.836;4.330;2022-12-18T09:04:19;0.50;99.90
23120;DHT22;11729;50.836;4.330;2022-12-18T09:06:45;0.60;99.90
23120;DHT22;11729;50.836;4.330;2022-12-18T09:09:10;0.70;99.90
23120;DHT22;11729;50.836;4.330;2022-12-18T09:11:37;0.70;99.90
23120;DHT22;11729;50.836;4.330;2022-12-18T09:14:03;0.70;99.90
23120;DHT22;11729;50.836;4.330;2022-12-18T09:16:29;0.80;99.90
23120;DHT22;11729;50.836;4.330;2022-12-18T09:18:57;0.60;99.90
23120;DHT22;11729;50.836;4.330;2022-12-18T09:21:28;0.80;99.90
23120;DHT22;11729;50.836;4.330;2022-12-18T09:23:54;0.80;99.90
23120;DHT22;11729;50.836;4.330;2022-12-18T09:26:21;1.10;99.90
23120;DHT22;11729;50.836;4.330;2022-12-18T09:28:47;1.40;99.90
23120;DHT22;11729;50.836;4.330;2022-12-18T09:31:14;1.40;99.90
23120;DHT22;11729;50.836;4.330;2022-12-18T09:33:41;1.40;99.90
23120;DHT22;11729;50.836;4.330;2022-12-18T09:36:09;1.30;99.90
23120;DHT22;11729;50.836;4.330;2022-12-18T09:38:34;1.40;99.90
23120;DHT22;11729;50.836;4.330;2022-12-18T09:41:31;1.20;99.90
23120;DHT22;11729;50.836;4.330;2022-12-18T09:43:54;0.90;99.90
23120;DHT22;11729;50.836;4.330;2022-12-18T09:46:31;1.10;99.90
23120;DHT22;11729;50.836;4.330;2022-12-18T09:49:01;1.20;99.90
23120;DHT22;11729;50.836;4.330;2022-12-18T09:51:33;1.40;99.90
23120;DHT22;11729;50.836;4.330;2022-12-18T09:54:06;1.40;99.90
23120;DHT22;11729;50.836;4.330;2022-12-18T09:56:36;1.40;99.90
23120;DHT22;11729;50.836;4.330;2022-12-18T09:59:04;1.70;99.90
23120;DHT22;11729;50.836;4.330;2022-12-18T10:01:31;1.80;99.90
23120;DHT22;11729;50.836;4.330;2022-12-18T10:03:58;1.80;99.90
23120;DHT22;11729;50.836;4.330;2022-12-18T10:09:24;2.00;99.90
23120;DHT22;11729;50.836;4.330;2022-12-18T10:12:21;2.00;99.90
23120;DHT22;11729;50.836;4.330;2022-12-18T10:15:02;2.00;99.90
23120;DHT22;11729;50.836;4.330;2022-12-18T10:20:05;2.20;99.90
23120;DHT22;11729;50.836;4.330;2022-12-18T10:22:57;2.40;99.90
23120;DHT22;11729;50.836;4.330;2022-12-18T10:28:14;2.50;99.90
23120;DHT22;11729;50.836;4.330;2022-12-18T10:30:41;2.50;99.90
23120;DHT22;11729;50.836;4.330;2022-12-18T10:33:16;2.40;99.90
23120;DHT22;11729;50.836;4.330;2022-12-18T10:35:43;2.50;99.90
23120;DHT22;11729;50.836;4.330;2022-12-18T10:40:57;2.00;99.90
23120;DHT22;11729;50.836;4.330;2022-12-18T10:43:38;2.20;99.90
23120;DHT22;11729;50.836;4.330;2022-12-18T10:54:02;2.80;99.90
23120;DHT22;11729;50.836;4.330;2022-12-18T10:56:29;2.80;99.90
23120;DHT22;11729;50.836;4.330;2022-12-18T10:59:16;3.10;99.90
23120;DHT22;11729;50.836;4.330;2022-12-18T11:01:52;3.10;99.90
23120;DHT22;11729;50.836;4.330;2022-12-18T11:04:27;3.20;99.90
23120;DHT22;11729;50.836;4.330;2022-12-18T11:09:43;3.20;99.90
23120;DHT22;11729;50.836;4.330;2022-12-18T11:12:15;3.20;99.90
23120;DHT22;11729;50.836;4.330;2022-12-18T11:17:21;3.10;99.90
23120;DHT22;11729;50.836;4.330;2022-12-18T11:19:58;3.10;99.90
23120;DHT22;11729;50.836;4.330;2022-12-18T11:25:19;3.10;99.90
23120;DHT22;11729;50.836;4.330;2022-12-18T11:27:52;3.20;99.90
23120;DHT22;11729;50.836;4.330;2022-12-18T11:30:29;3.20;99.90
23120;DHT22;11729;50.836;4.330;2022-12-18T11:33:19;3.20;99.90
23120;DHT22;11729;50.836;4.330;2022-12-18T11:35:55;3.20;99.90
23120;DHT22;11729;50.836;4.330;2022-12-18T11:38:26;3.20;99.90
23120;DHT22;11729;50.836;4.330;2022-12-18T11:40:59;3.00;99.90
23120;DHT22;11729;50.836;4.330;2022-12-18T11:43:29;2.90;99.90
23120;DHT22;11729;50.836;4.330;2022-12-18T11:46:13;2.80;99.90
23120;DHT22;11729;50.836;4.330;2022-12-18T11:48:59;2.50;99.90
23120;DHT22;11729;50.836;4.330;2022-12-18T11:51:37;2.60;99.90
23120;DHT22;11729;50.836;4.330;2022-12-18T11:54:12;2.70;99.90
23120;DHT22;11729;50.836;4.330;2022-12-18T12:10:29;3.10;99.90
23120;DHT22;11729;50.836;4.330;2022-12-18T12:15:44;3.00;99.90
23120;DHT22;11729;50.836;4.330;2022-12-18T12:18:47;3.10;99.90
23120;DHT22;11729;50.836;4.330;2022-12-18T12:26:38;3.20;99.90
23120;DHT22;11729;50.836;4.330;2022-12-18T12:29:28;3.10;99.90
23120;DHT22;11729;50.836;4.330;2022-12-18T12:40:01;3.40;99.90
23120;DHT22;11729;50.836;4.330;2022-12-18T12:42:47;3.50;99.90
23120;DHT22;11729;50.836;4.330;2022-12-18T12:45:53;3.50;99.90
23120;DHT22;11729;50.836;4.330;2022-12-18T12:48:47;3.60;99.90
23120;DHT22;11729;50.836;4.330;2022-12-18T12:51:38;3.60;99.90
23120;DHT22;11729;50.836;4.330;2022-12-18T12:54:23;3.60;99.90
23120;DHT22;11729;50.836;4.330;2022-12-18T13:05:03;3.60;99.90
23120;DHT22;11729;50.836;4.330;2022-12-18T13:07:37;3.50;99.90
23120;DHT22;11729;50.836;4.330;2022-12-18T13:13:06;3.20;99.90
23120;DHT22;11729;50.836;4.330;2022-12-18T13:15:44;3.30;99.90
23120;DHT22;11729;50.836;4.330;2022-12-18T13:20:50;3.40;99.90
23120;DHT22;11729;50.836;4.330;2022-12-18T13:34:16;3.30;99.90
23120;DHT22;11729;50.836;4.330;2022-12-18T13:36:45;3.20;99.90
23120;DHT22;11729;50.836;4.330;2022-12-18T13:39:20;3.00;99.90
23120;DHT22;11729;50.836;4.330;2022-12-18T13:41:54;3.00;99.90
23120;DHT22;11729;50.836;4.330;2022-12-18T13:44:59;3.00;99.90
23120;DHT22;11729;50.836;4.330;2022-12-18T13:47:31;3.20;99.90
23120;DHT22;11729;50.836;4.330;2022-12-18T13:49:59;3.20;99.90
23120;DHT22;11729;50.836;4.330;2022-12-18T13:52:37;3.20;99.90
23120;DHT22;11729;50.836;4.330;2022-12-18T13:55:11;3.20;99.90
23120;DHT22;11729;50.836;4.330;2022-12-18T13:57:45;3.20;99.90
23120;DHT22;11729;50.836;4.330;2022-12-18T14:00:29;3.10;99.90
23120;DHT22;11729;50.836;4.330;2022-12-18T14:02:59;3.20;99.90
23120;DHT22;11729;50.836;4.330;2022-12-18T14:05:34;3.20;99.90
23120;DHT22;11729;50.836;4.330;2022-12-18T14:08:13;3.10;99.90
23120;DHT22;11729;50.836;4.330;2022-12-18T14:10:47;3.10;99.90
23120;DHT22;11729;50.836;4.330;2022-12-18T14:13:35;3.10;99.90
23120;DHT22;11729;50.836;4.330;2022-12-18T14:16:01;3.00;99.90
23120;DHT22;11729;50.836;4.330;2022-12-18T14:18:36;3.00;99.90
23120;DHT22;11729;50.836;4.330;2022-12-18T14:21:04;3.00;99.90
23120;DHT22;11729;50.836;4.330;2022-12-18T14:23:41;3.00;99.90
23120;DHT22;11729;50.836;4.330;2022-12-18T14:26:27;3.00;99.90
23120;DHT22;11729;50.836;4.330;2022-12-18T14:28:58;3.00;99.90
23120;DHT22;11729;50.836;4.330;2022-12-18T14:31:28;3.00;99.90
23120;DHT22;11729;50.836;4.330;2022-12-18T14:33:57;2.80;99.90
23120;DHT22;11729;50.836;4.330;2022-12-18T14:36:25;2.90;99.90
23120;DHT22;11729;50.836;4.330;2022-12-18T14:39:01;3.00;99.90
23120;DHT22;11729;50.836;4.330;2022-12-18T14:41:26;2.90;99.90
23120;DHT22;11729;50.836;4.330;2022-12-18T14:43:54;2.90;99.90
23120;DHT22;11729;50.836;4.330;2022-12-18T14:49:02;2.90;99.90
23120;DHT22;11729;50.836;4.330;2022-12-18T14:51:30;2.80;99.90
23120;DHT22;11729;50.836;4.330;2022-12-18T14:54:00;2.80;99.90
23120;DHT22;11729;50.836;4.330;2022-12-18T14:56:31;2.80;99.90
23120;DHT22;11729;50.836;4.330;2022-12-18T14:59:11;2.70;99.90
23120;DHT22;11729;50.836;4.330;2022-12-18T15:01:56;2.80;99.90
23120;DHT22;11729;50.836;4.330;2022-12-18T15:04:37;2.80;99.90
23120;DHT22;11729;50.836;4.330;2022-12-18T15:07:17;2.90;99.90
23120;DHT22;11729;50.836;4.330;2022-12-18T15:10:30;2.90;99.90
23120;DHT22;11729;50.836;4.330;2022-12-18T15:12:42;2.90;99.90
23120;DHT22;11729;50.836;4.330;2022-12-18T15:20:53;2.90;99.90
23120;DHT22;11729;50.836;4.330;2022-12-18T15:23:21;2.90;99.90
23120;DHT22;11729;50.836;4.330;2022-12-18T15:26:05;2.80;99.90
23120;DHT22;11729;50.836;4.330;2022-12-18T15:28:50;2.80;99.90
23120;DHT22;11729;50.836;4.330;2022-12-18T15:34:01;2.80;99.90
23120;DHT22;11729;50.836;4.330;2022-12-18T15:36:29;3.00;99.90
23120;DHT22;11729;50.836;4.330;2022-12-18T15:39:02;2.90;99.90
23120;DHT22;11729;50.836;4.330;2022-12-18T15:41:27;2.90;99.90
23120;DHT22;11729;50.836;4.330;2022-12-18T15:43:53;2.90;99.90
23120;DHT22;11729;50.836;4.330;2022-12-18T15:46:24;3.00;99.90
23120;DHT22;11729;50.836;4.330;2022-12-18T15:48:55;3.00;99.90
23120;DHT22;11729;50.836;4.330;2022-12-18T15:51:35;3.00;99.90
23120;DHT22;11729;50.836;4.330;2022-12-18T15:54:04;3.00;99.90
23120;DHT22;11729;50.836;4.330;2022-12-18T15:56:30;2.90;99.90
23120;DHT22;11729;50.836;4.330;2022-12-18T15:59:17;2.80;99.90
23120;DHT22;11729;50.836;4.330;2022-12-18T16:01:48;2.70;99.90
23120;DHT22;11729;50.836;4.330;2022-12-18T16:04:16;2.80;99.90
23120;DHT22;11729;50.836;4.330;2022-12-18T16:06:42;2.90;99.90
23120;DHT22;11729;50.836;4.330;2022-12-18T16:09:08;2.90;99.90
23120;DHT22;11729;50.836;4.330;2022-12-18T16:11:36;3.00;99.90
23120;DHT22;11729;50.836;4.330;2022-12-18T16:16:50;2.90;99.90
23120;DHT22;11729;50.836;4.330;2022-12-18T16:19:16;2.90;99.90
23120;DHT22;11729;50.836;4.330;2022-12-18T16:21:42;2.80;99.90
23120;DHT22;11729;50.836;4.330;2022-12-18T16:24:15;2.80;99.90
23120;DHT22;11729;50.836;4.330;2022-12-18T16:26:41;2.80;99.90
23120;DHT22;11729;50.836;4.330;2022-12-18T16:29:07;2.90;99.90
23120;DHT22;11729;50.836;4.330;2022-12-18T16:31:33;2.90;99.90
23120;DHT22;11729;50.836;4.330;2022-12-18T16:36:38;2.90;99.90
23120;DHT22;11729;50.836;4.330;2022-12-18T16:39:03;2.90;99.90
23120;DHT22;11729;50.836;4.330;2022-12-18T16:41:29;2.70;99.90
23120;DHT22;11729;50.836;4.330;2022-12-18T16:43:58;2.80;99.90
23120;DHT22;11729;50.836;4.330;2022-12-18T16:46:24;2.90;99.90
23120;DHT22;11729;50.836;4.330;2022-12-18T16:48:50;2.90;99.90
23120;DHT22;11729;50.836;4.330;2022-12-18T16:51:15;2.90;99.90
23120;DHT22;11729;50.836;4.330;2022-12-18T16:53:41;3.00;99.90
23120;DHT22;11729;50.836;4.330;2022-12-18T16:56:06;3.00;99.90
23120;DHT22;11729;50.836;4.330;2022-12-18T16:58:32;3.00;99.90
23120;DHT22;11729;50.836;4.330;2022-12-18T17:00:58;3.00;99.90
23120;DHT22;11729;50.836;4.330;2022-12-18T17:03:24;3.00;99.90
23120;DHT22;11729;50.836;4.330;2022-12-18T17:05:50;3.00;99.90
23120;DHT22;11729;50.836;4.330;2022-12-18T17:08:15;3.00;99.90
23120;DHT22;11729;50.836;4.330;2022-12-18T17:10:41;3.00;99.90
23120;DHT22;11729;50.836;4.330;2022-12-18T17:13:06;3.00;99.90
23120;DHT22;11729;50.836;4.330;2022-12-18T17:15:35;3.10;99.90
23120;DHT22;11729;50.836;4.330;2022-12-18T17:18:01;3.10;99.90
23120;DHT22;11729;50.836;4.330;2022-12-18T17:20:29;3.00;99.90
23120;DHT22;11729;50.836;4.330;2022-12-18T17:22:56;3.00;99.90
23120;DHT22;11729;50.836;4.330;2022-12-18T17:25:25;3.00;99.90
23120;DHT22;11729;50.836;4.330;2022-12-18T17:27:51;3.00;99.90
23120;DHT22;11729;50.836;4.330;2022-12-18T17:30:17;3.00;99.90
23120;DHT22;11729;50.836;4.330;2022-12-18T17:32:42;3.00;99.90
23120;DHT22;11729;50.836;4.330;2022-12-18T17:35:09;3.00;99.90
23120;DHT22;11729;50.836;4.330;2022-12-18T17:37:34;2.90;99.90
23120;DHT22;11729;50.836;4.330;2022-12-18T17:40:03;2.90;99.90
23120;DHT22;11729;50.836;4.330;2022-12-18T17:42:29;2.90;99.90
23120;DHT22;11729;50.836;4.330;2022-12-18T17:44:58;2.90;99.90
23120;DHT22;11729;50.836;4.330;2022-12-18T17:47:25;2.90;99.90
23120;DHT22;11729;50.836;4.330;2022-12-18T17:49:51;2.80;99.90
23120;DHT22;11729;50.836;4.330;2022-12-18T17:52:19;2.80;99.90
23120;DHT22;11729;50.836;4.330;2022-12-18T17:54:45;2.70;99.90
23120;DHT22;11729;50.836;4.330;2022-12-18T17:57:11;2.60;99.90
23120;DHT22;11729;50.836;4.330;2022-12-18T17:59:36;2.70;99.90
23120;DHT22;11729;50.836;4.330;2022-12-18T18:02:03;2.60;99.90
23120;DHT22;11729;50.836;4.330;2022-12-18T18:04:29;2.50;99.90
23120;DHT22;11729;50.836;4.330;2022-12-18T18:06:54;2.50;99.90